createdAt,value
2023-05-01T00:12:34.704Z,10.8
2023-05-01T00:14:35.930Z,11.2
2023-05-01T00:16:37.225Z,8
2023-05-01T00:18:38.385Z,9.8
2023-05-01T00:20:39.602Z,14.5
2023-05-01T00:22:40.840Z,8.9
2023-05-01T00:24:45.328Z,6.2
2023-05-01T00:26:46.631Z,13.3
2023-05-01T00:31:16.142Z,6.9
2023-05-01T00:33:17.345Z,7.1
2023-05-01T00:35:18.549Z,3.8
2023-05-01T00:37:23.067Z,6.1
2023-05-01T00:39:24.288Z,5
2023-05-01T00:43:26.723Z,11
2023-05-01T00:47:29.225Z,10.7
2023-05-01T00:49:30.398Z,10.7
2023-05-01T00:57:38.595Z,5.8
2023-05-01T01:01:41.004Z,10.1
2023-05-01T01:03:42.216Z,15.2
2023-05-01T01:07:47.877Z,9.8
2023-05-01T01:09:49.134Z,7.7
2023-05-01T01:11:50.322Z,11
2023-05-01T01:19:58.479Z,4.9
2023-05-01T01:21:59.677Z,11.4
2023-05-01T01:24:00.921Z,7.7
2023-05-01T01:25:03.148Z,25.3
2023-05-01T01:27:04.353Z,9.3
2023-05-01T01:33:11.251Z,15.2
2023-05-01T01:35:12.526Z,10.7
2023-05-01T01:39:14.970Z,5.9
2023-05-01T01:43:17.520Z,11.7
2023-05-01T01:47:23.160Z,7.6
2023-05-01T01:53:26.760Z,9.2
2023-05-01T01:59:30.425Z,10.3
2023-05-01T02:01:35.004Z,10.2
2023-05-01T02:03:36.262Z,13.9
2023-05-01T02:07:38.571Z,13.9
2023-05-01T02:09:39.727Z,8.3
2023-05-01T02:20:51.330Z,14.6
2023-05-01T02:22:52.536Z,9.9
2023-05-01T02:24:53.754Z,13.3
2023-05-01T02:26:54.942Z,15.9
2023-05-01T02:28:59.426Z,9.1
2023-05-01T02:31:00.670Z,8.3
2023-05-01T02:33:01.891Z,11.7
2023-05-01T02:35:03.135Z,14.7
2023-05-01T02:37:04.385Z,12.5
2023-05-01T02:41:06.726Z,20.2
2023-05-01T02:43:11.219Z,15.8
2023-05-01T02:45:12.423Z,11.7
2023-05-01T02:49:14.838Z,19.9
2023-05-01T02:53:17.252Z,11.7
2023-05-01T02:55:18.478Z,14.2
2023-05-01T02:57:22.888Z,16.2
2023-05-01T02:59:24.127Z,11
2023-05-01T03:01:26.913Z,15.9
2023-05-01T03:03:28.054Z,10.2
2023-05-01T03:05:29.262Z,15
2023-05-01T03:07:30.455Z,13.1
2023-05-01T03:09:31.675Z,8.4
2023-05-01T03:11:36.172Z,12.7
2023-05-01T03:13:37.374Z,13.9
2023-05-01T03:15:38.654Z,17.8
2023-05-01T03:16:40.842Z,8.3
2023-05-01T03:18:42.034Z,10.3
2023-05-01T03:20:43.245Z,7.7
2023-05-01T03:22:44.460Z,8.9
2023-05-01T03:24:48.912Z,12.4
2023-05-01T03:26:50.150Z,13
2023-05-01T03:28:51.362Z,10.9
2023-05-01T03:30:52.575Z,10.7
2023-05-01T03:34:55.015Z,14.1
2023-05-01T03:36:56.175Z,8.9
2023-05-01T03:41:01.862Z,16.2
2023-05-01T03:43:03.058Z,10.8
2023-05-01T03:45:04.253Z,12
2023-05-01T03:47:05.500Z,10.3
2023-05-01T03:49:06.672Z,10.7
2023-05-01T03:53:12.341Z,10.9
2023-05-01T03:55:13.597Z,13.7
2023-05-01T03:57:14.761Z,12.5
2023-05-01T03:59:15.968Z,23.1
2023-05-01T04:01:17.161Z,14.1
2023-05-01T04:05:19.570Z,16.5
2023-05-01T04:07:24.031Z,11.1
2023-05-01T04:09:25.234Z,9.3
2023-05-01T04:11:26.453Z,18
2023-05-01T04:20:01.702Z,18.8
2023-05-01T04:26:05.279Z,10.4
2023-05-01T04:28:06.504Z,16.2
2023-05-01T04:30:07.715Z,8.5
2023-05-01T04:42:18.213Z,18.7
2023-05-01T04:44:19.430Z,20.4
2023-05-01T04:46:20.760Z,10.9
2023-05-01T04:48:25.110Z,16.6
2023-05-01T04:50:26.345Z,13.3
2023-05-01T04:52:27.574Z,27.3
2023-05-01T04:54:28.769Z,13.8
2023-05-01T05:04:38.104Z,17.6
2023-05-01T05:07:41.511Z,12.7
2023-05-01T05:09:42.735Z,14.9
2023-05-01T05:15:49.680Z,13
2023-05-01T05:17:50.872Z,18.1
2023-05-01T05:19:52.077Z,16.2
2023-05-01T05:25:55.698Z,10.9
2023-05-01T05:27:56.959Z,20.7
2023-05-01T05:30:01.488Z,56
2023-05-01T05:44:13.074Z,16.5
2023-05-01T05:46:14.330Z,21
2023-05-01T05:48:15.543Z,19
2023-05-01T05:50:16.746Z,46.5
2023-05-01T05:52:17.934Z,17.2
2023-05-01T05:58:24.896Z,13.7
2023-05-01T06:00:26.109Z,11.1
2023-05-01T06:02:27.475Z,13.9
2023-05-01T06:07:32.007Z,24.1
2023-05-01T06:09:33.241Z,22.6
2023-05-01T06:15:40.198Z,16
2023-05-01T06:17:41.382Z,19.4
2023-05-01T06:23:45.017Z,17
2023-05-01T06:25:49.506Z,38.7
2023-05-01T06:27:50.736Z,13.4
2023-05-01T06:31:53.253Z,18.4
2023-05-01T06:33:54.372Z,11.4
2023-05-01T06:40:01.289Z,15.5
2023-05-01T06:50:07.447Z,31.2
2023-05-01T06:52:08.610Z,15.4
2023-05-01T06:54:13.153Z,14.6
2023-05-01T06:56:14.344Z,17.2
2023-05-01T06:58:23.569Z,18
2023-05-01T06:59:17.810Z,62.7
2023-05-01T07:03:20.307Z,7.1
2023-05-01T07:05:21.448Z,15.4
2023-05-01T07:07:25.960Z,10.5
2023-05-01T07:09:27.221Z,18.1
2023-05-01T07:11:28.379Z,11.5
2023-05-01T07:13:29.604Z,20
2023-05-01T07:15:30.863Z,14.7
2023-05-01T07:17:32.098Z,17.5
2023-05-01T07:19:33.261Z,19.3
2023-05-01T07:21:37.786Z,18.1
2023-05-01T07:27:42.357Z,19.6
2023-05-01T07:31:44.805Z,22.3
2023-05-01T07:33:46.064Z,14
2023-05-01T07:35:50.563Z,16.8
2023-05-01T07:37:51.763Z,12.6
2023-05-01T07:39:53.057Z,12.5
2023-05-01T08:12:45.941Z,12.3
2023-05-01T08:14:47.040Z,14.9
2023-05-01T08:16:51.453Z,20.3
2023-05-01T08:22:54.812Z,15.1
2023-05-01T08:24:55.937Z,13.2
2023-05-01T08:26:57.057Z,14.5
2023-05-01T08:28:58.180Z,17
2023-05-01T08:31:02.527Z,13.9
2023-05-01T08:33:03.786Z,13.6
2023-05-01T08:35:04.727Z,13.3
2023-05-01T08:37:05.809Z,10.3
2023-05-01T08:39:06.965Z,13.2
2023-05-01T08:41:08.054Z,15.7
2023-05-01T08:45:13.467Z,15.9
2023-05-01T08:47:14.679Z,10.1
2023-05-01T08:49:15.680Z,12.4
2023-05-01T08:50:19.365Z,9.9
2023-05-01T08:54:21.514Z,13.9
2023-05-01T09:00:27.993Z,10.7
2023-05-01T09:02:29.194Z,15.5
2023-05-01T09:08:32.969Z,16.7
2023-05-01T09:10:34.070Z,15.5
2023-05-01T09:12:38.303Z,9.4
2023-05-01T09:20:42.628Z,13.4
2023-05-01T09:30:51.167Z,11.9
2023-05-01T09:32:52.219Z,12.8
2023-05-01T09:34:53.276Z,11.4
2023-05-01T09:36:54.333Z,16.5
2023-05-01T09:38:55.392Z,6.8
2023-05-01T09:40:59.645Z,17.5
2023-05-01T09:43:00.687Z,15.6
2023-05-01T09:45:01.830Z,16.9
2023-05-01T09:46:03.945Z,7
2023-05-01T09:50:05.938Z,13.7
2023-05-01T09:52:06.993Z,10.7
2023-05-01T09:54:11.975Z,6.9
2023-05-01T09:56:13.068Z,9.6
2023-05-01T09:58:14.122Z,37.2
2023-05-01T10:00:15.131Z,11.7
2023-05-01T10:02:16.217Z,13.6
2023-05-01T10:04:17.253Z,9.1
2023-05-01T10:06:18.309Z,7
2023-05-01T10:08:22.722Z,9.5
2023-05-01T10:10:23.568Z,7.4
2023-05-01T10:12:25.318Z,7.7
2023-05-01T10:14:26.359Z,10.5
2023-05-01T10:18:28.446Z,5.5
2023-05-01T10:22:33.655Z,10.9
2023-05-01T10:24:34.706Z,6.9
2023-05-01T10:32:39.078Z,4.9
2023-05-01T10:34:40.078Z,11.3
2023-05-01T10:36:44.275Z,16.4
2023-05-01T10:38:45.384Z,13.1
2023-05-01T10:40:46.413Z,4.5
2023-05-01T10:41:48.556Z,13.2
2023-05-01T10:45:50.737Z,10
2023-05-01T10:47:51.812Z,13.9
2023-05-01T10:49:55.980Z,6.4
2023-05-01T10:51:57.080Z,5.8
2023-05-01T10:53:58.156Z,9.9
2023-05-01T10:55:59.232Z,9.1
2023-05-01T10:58:00.308Z,18.6
2023-05-01T11:02:02.548Z,9.2
2023-05-01T11:04:06.926Z,8.8
2023-05-01T11:06:07.951Z,12.2
2023-05-01T11:08:08.917Z,12
2023-05-01T11:10:09.987Z,6.5
2023-05-01T11:22:19.623Z,6.8
2023-05-01T11:28:22.845Z,13.1
2023-05-01T11:32:28.575Z,12.5
2023-05-01T11:34:29.617Z,8.9
2023-05-01T11:36:30.703Z,5.1
2023-05-01T11:40:59.664Z,10.4
2023-05-01T11:43:00.731Z,25.4
2023-05-01T11:45:04.994Z,17.8
2023-05-01T11:49:07.116Z,120
2023-05-01T11:51:08.193Z,13.7
2023-05-01T11:53:09.263Z,7.8
2023-05-01T11:55:10.333Z,7.7
2023-05-01T11:57:11.431Z,10.4
2023-05-01T11:59:15.661Z,9.3
2023-05-01T12:01:16.781Z,4
2023-05-01T12:03:18.214Z,30.6
2023-05-01T12:07:19.934Z,8.2
2023-05-01T12:09:21.015Z,10.5
2023-05-01T12:11:22.070Z,9.7
2023-05-01T12:13:26.344Z,4.5
2023-05-01T12:15:27.391Z,6.4
2023-05-01T12:17:28.553Z,5.9
2023-05-01T12:19:29.535Z,8.4
2023-05-01T12:23:31.659Z,7.5
2023-05-01T12:25:32.732Z,9.2
2023-05-01T12:27:37.021Z,2.3
2023-05-01T12:29:38.073Z,7.3
2023-05-01T12:31:39.149Z,7.4
2023-05-01T12:32:41.279Z,11
2023-05-01T12:34:42.323Z,6.6
2023-05-01T12:36:43.369Z,4.4
2023-05-01T12:38:44.447Z,8.1
2023-05-01T12:40:48.693Z,2.9
2023-05-01T12:44:50.837Z,3.4
2023-05-01T12:46:52.001Z,9.8
2023-05-01T12:50:54.025Z,9.2
2023-05-01T12:54:59.540Z,9.8
2023-05-01T12:57:00.340Z,6.4
2023-05-01T12:59:01.428Z,6.7
2023-05-01T13:01:02.477Z,6.8
2023-05-01T13:05:04.559Z,8
2023-05-01T13:07:05.646Z,16.8
2023-05-01T13:11:10.927Z,2.9
2023-05-01T13:13:11.969Z,26.4
2023-05-01T13:17:14.069Z,6
2023-05-01T13:19:15.152Z,6.6
2023-05-01T13:21:16.407Z,15.2
2023-05-01T13:23:20.436Z,6.3
2023-05-01T13:25:21.499Z,5.8
2023-05-01T13:28:24.694Z,4.2
2023-05-01T13:30:25.712Z,13.6
2023-05-01T13:32:26.841Z,4.2
2023-05-01T13:34:27.814Z,9.8
2023-05-01T13:38:33.112Z,6.6
2023-05-01T13:40:34.169Z,7.8
2023-05-01T13:44:36.263Z,7.5
2023-05-01T13:46:37.389Z,4.1
2023-05-01T13:50:42.596Z,8.3
2023-05-01T13:52:43.658Z,5.2
2023-05-01T13:54:44.706Z,8.4
2023-05-01T13:58:46.819Z,7.3
2023-05-01T14:14:58.712Z,9.6
2023-05-01T14:19:03.774Z,11.4
2023-05-01T14:21:04.844Z,7.7
2023-05-01T14:23:05.894Z,8.5
2023-05-01T14:24:08.053Z,4.3
2023-05-01T14:30:11.231Z,12.7
2023-05-01T14:32:15.503Z,5.3
2023-05-01T14:34:16.583Z,11.4
2023-05-01T14:46:27.859Z,11.9
2023-05-01T14:56:33.195Z,3.7
2023-05-01T15:00:38.561Z,7.8
2023-05-01T15:06:41.845Z,13
2023-05-01T15:08:42.900Z,9.5
2023-05-01T15:10:43.991Z,6.2
2023-05-01T15:12:45.073Z,7.9
2023-05-01T15:14:49.468Z,12.6
2023-05-01T15:16:50.569Z,5.6
2023-05-01T15:21:19.463Z,10.8
2023-05-01T15:25:21.652Z,6.5
2023-05-01T15:27:25.925Z,10.7
2023-05-01T15:29:27.011Z,9.2
2023-05-01T15:33:29.219Z,15.2
2023-05-01T15:37:31.383Z,5.7
2023-05-01T15:49:41.100Z,3.7
2023-05-01T15:55:47.530Z,11.4
2023-05-01T15:59:49.719Z,11.7
2023-05-01T16:01:50.913Z,35.7
2023-05-01T16:07:54.098Z,13.9
2023-05-01T16:09:58.851Z,9.4
2023-05-01T16:15:02.653Z,17.6
2023-05-01T16:17:03.814Z,9.2
2023-05-01T16:19:04.832Z,11.2
2023-05-01T16:37:20.988Z,13.5
2023-05-01T16:39:22.104Z,14.3
2023-05-01T16:45:25.376Z,8.7
2023-05-01T16:47:26.472Z,19.7
2023-05-01T17:10:46.992Z,7.3
2023-05-01T17:12:48.094Z,9.5
2023-05-01T17:14:49.213Z,13.5
2023-05-01T17:20:55.641Z,9.4
2023-05-01T17:22:56.864Z,10.8
2023-05-01T17:24:57.806Z,19.9
2023-05-01T17:33:05.456Z,15.9
2023-05-01T17:39:08.707Z,29.8
2023-05-01T17:41:09.839Z,21.6
2023-05-01T17:47:16.346Z,20.8
2023-05-01T17:51:18.565Z,23.5
2023-05-01T17:55:20.749Z,24.5
2023-05-01T17:57:21.852Z,17.8
2023-05-01T18:03:28.488Z,24.6
2023-05-01T18:05:29.463Z,23.1
2023-05-01T18:06:31.688Z,29.3
2023-05-01T18:08:32.707Z,18.2
2023-05-01T18:12:34.922Z,25.2
2023-05-01T18:20:42.545Z,37.8
2023-05-01T18:22:43.647Z,24.3
2023-05-01T18:24:44.797Z,21
2023-05-01T18:26:45.899Z,23.4
2023-05-01T18:28:50.170Z,20.9
2023-05-01T18:30:51.282Z,27.2
2023-05-01T18:32:52.479Z,28.4
2023-05-01T18:34:53.510Z,22.6
2023-05-01T18:38:55.771Z,25.2
2023-05-01T18:45:02.261Z,30.1
2023-05-01T18:53:06.705Z,26.9
2023-05-01T18:55:07.834Z,18
2023-05-01T19:01:14.381Z,23.6
2023-05-01T19:03:42.356Z,28.8
2023-05-01T19:09:48.892Z,25.8
2023-05-01T19:11:50.028Z,24.9
2023-05-01T19:17:53.409Z,26.1
2023-05-01T19:19:54.506Z,24.5
2023-05-01T19:21:55.605Z,27.1
2023-05-01T19:26:01.124Z,23.6
2023-05-01T19:28:02.241Z,34.2
2023-05-01T19:30:03.359Z,37.2
2023-05-01T19:32:04.504Z,24.6
2023-05-01T19:36:06.728Z,35.3
2023-05-01T19:38:11.029Z,28.2
2023-05-01T19:40:12.137Z,32.2
2023-05-01T19:42:13.264Z,32.2
2023-05-01T19:46:15.570Z,35.7
2023-05-01T19:48:16.659Z,41.3
2023-05-01T19:50:17.788Z,30.2
2023-05-01T19:52:22.070Z,26.4
2023-05-01T19:54:23.241Z,33.6
2023-05-01T19:56:24.326Z,31
2023-05-01T19:57:26.473Z,36.1
2023-05-01T20:05:34.146Z,44.1
2023-05-01T20:07:35.288Z,35.9
2023-05-01T20:09:36.410Z,32.5
2023-05-01T20:13:38.903Z,46.2
2023-05-01T20:15:40.142Z,34.2
2023-05-01T20:17:41.301Z,34.4
2023-05-01T20:19:45.547Z,40.1
2023-05-01T20:23:47.827Z,48.3
2023-05-01T20:25:48.988Z,37.9
2023-05-01T20:27:50.186Z,35.9
2023-05-01T20:29:52.943Z,38.9
2023-05-01T20:31:54.152Z,40.6
2023-05-01T20:33:58.442Z,44.5
2023-05-01T20:35:59.559Z,48.6
2023-05-01T20:38:00.788Z,49.7
2023-05-01T20:40:02.229Z,47.3
2023-05-01T20:42:03.284Z,44.3
2023-05-01T20:44:04.526Z,47.3
2023-05-01T20:46:05.757Z,53.1
2023-05-01T20:48:10.313Z,53.3
2023-05-01T20:55:16.168Z,54.4
2023-05-01T20:57:17.397Z,49.9
2023-05-01T20:59:18.639Z,52.8
2023-05-01T21:01:23.154Z,56.8
2023-05-01T21:03:24.564Z,52.7
2023-05-01T21:05:25.642Z,48.8
2023-05-01T21:07:26.833Z,47.9
2023-05-01T21:09:28.108Z,58.8
2023-05-01T21:11:29.299Z,66
2023-05-01T21:13:30.524Z,51.6
2023-05-01T21:15:35.139Z,61.8
2023-05-01T21:17:36.318Z,54.3
2023-05-01T21:19:37.497Z,54.8
2023-05-01T21:21:38.713Z,61.2
2023-05-01T21:23:39.962Z,58.2
2023-05-01T21:46:00.050Z,36.1
2023-05-01T21:48:01.299Z,39.1
2023-05-01T21:49:03.509Z,38.5
2023-05-01T22:03:15.476Z,34.5
2023-05-01T22:29:37.885Z,40.5
2023-05-01T22:33:40.271Z,43.6
2023-05-01T22:35:41.508Z,34.2
2023-05-01T22:48:19.341Z,39.8
2023-05-01T22:50:20.447Z,46.4
2023-05-01T22:52:24.906Z,46
2023-05-01T22:54:26.147Z,43
2023-05-01T22:56:27.377Z,50.2
2023-05-01T22:58:28.595Z,44.3
2023-05-01T23:00:29.821Z,52
2023-05-01T23:02:31.166Z,47.2
2023-05-01T23:04:32.321Z,50.1
2023-05-01T23:08:37.984Z,52.7
2023-05-01T23:10:39.218Z,53.8
2023-05-01T23:14:41.677Z,49.4
2023-05-01T23:16:42.899Z,52.7
2023-05-01T23:39:02.890Z,51.1
2023-05-01T23:40:05.140Z,40.5
2023-05-01T23:42:06.350Z,49.3
2023-05-01T23:46:08.807Z,37.4
2023-05-01T23:48:13.316Z,35.8
